sensor_id;sensor_type;location;lat;lon;timestamp;pressure;altitude;pressure_sealevel;temperature;humidity
22311;BME280;11323;49.610;11.016;2023-02-10T00:03:21;99942.59;;;9.49;nan
22311;BME280;11323;49.610;11.016;2023-02-10T00:08:21;99942.59;;;9.49;nan
22311;BME280;11323;49.610;11.016;2023-02-10T00:13:21;99934.03;;;9.47;nan
22311;BME280;11323;49.610;11.016;2023-02-10T00:18:22;99916.47;;;9.36;nan
22311;BME280;11323;49.610;11.016;2023-02-10T00:23:22;99931.06;;;9.38;nan
22311;BME280;11323;49.610;11.016;2023-02-10T00:28:23;99948.81;;;9.46;nan
22311;BME280;11323;49.610;11.016;2023-02-10T00:33:23;99952.63;;;9.40;nan
22311;BME280;11323;49.610;11.016;2023-02-10T00:38:23;99953.56;;;9.39;nan
22311;BME280;11323;49.610;11.016;2023-02-10T00:43:24;99953.00;;;9.34;nan
22311;BME280;11323;49.610;11.016;2023-02-10T00:48:24;99962.66;;;9.32;nan
22311;BME280;11323;49.610;11.016;2023-02-10T00:53:25;99964.13;;;9.36;nan
22311;BME280;11323;49.610;11.016;2023-02-10T00:58:26;99959.50;;;9.27;nan
22311;BME280;11323;49.610;11.016;2023-02-10T01:03:26;99969.91;;;9.27;nan
22311;BME280;11323;49.610;11.016;2023-02-10T01:08:27;99975.75;;;9.31;nan
22311;BME280;11323;49.610;11.016;2023-02-10T01:13:28;99976.13;;;9.24;nan
22311;BME280;11323;49.610;11.016;2023-02-10T01:18:28;99983.00;;;9.25;nan
22311;BME280;11323;49.610;11.016;2023-02-10T01:23:29;99983.81;;;9.26;nan
22311;BME280;11323;49.610;11.016;2023-02-10T01:28:29;99971.63;;;9.12;nan
22311;BME280;11323;49.610;11.016;2023-02-10T01:33:29;99987.06;;;9.15;nan
22311;BME280;11323;49.610;11.016;2023-02-10T01:38:31;99986.22;;;9.15;nan
22311;BME280;11323;49.610;11.016;2023-02-10T01:43:33;99992.28;;;9.15;nan
22311;BME280;11323;49.610;11.016;2023-02-10T01:48:33;99996.13;;;9.08;nan
22311;BME280;11323;49.610;11.016;2023-02-10T01:53:34;99998.47;;;9.12;nan
22311;BME280;11323;49.610;11.016;2023-02-10T01:58:34;99981.94;;;8.99;nan
22311;BME280;11323;49.610;11.016;2023-02-10T02:03:35;99984.75;;;9.10;nan
22311;BME280;11323;49.610;11.016;2023-02-10T02:08:37;99987.25;;;9.12;nan
22311;BME280;11323;49.610;11.016;2023-02-10T02:14:10;99987.41;;;9.09;nan
22311;BME280;11323;49.610;11.016;2023-02-10T02:30:45;99987.13;;;8.99;nan
22311;BME280;11323;49.610;11.016;2023-02-10T02:35:56;100007.94;;;8.99;nan
22311;BME280;11323;49.610;11.016;2023-02-10T02:40:58;100005.00;;;8.89;nan
22311;BME280;11323;49.610;11.016;2023-02-10T02:46:16;100016.81;;;8.95;nan
22311;BME280;11323;49.610;11.016;2023-02-10T02:52:20;100003.06;;;8.93;nan
22311;BME280;11323;49.610;11.016;2023-02-10T02:57:22;100009.94;;;8.94;nan
22311;BME280;11323;49.610;11.016;2023-02-10T03:02:25;100009.94;;;8.94;nan
22311;BME280;11323;49.610;11.016;2023-02-10T03:07:29;100002.41;;;8.89;nan
22311;BME280;11323;49.610;11.016;2023-02-10T03:12:29;100003.44;;;8.87;nan
22311;BME280;11323;49.610;11.016;2023-02-10T03:17:30;99999.00;;;8.89;nan
22311;BME280;11323;49.610;11.016;2023-02-10T03:22:30;100003.22;;;8.90;nan
22311;BME280;11323;49.610;11.016;2023-02-10T03:27:30;100001.91;;;8.83;nan
22311;BME280;11323;49.610;11.016;2023-02-10T03:32:31;100002.41;;;8.89;nan
22311;BME280;11323;49.610;11.016;2023-02-10T03:37:31;99999.47;;;8.79;nan
22311;BME280;11323;49.610;11.016;2023-02-10T03:42:31;100014.91;;;8.83;nan
22311;BME280;11323;49.610;11.016;2023-02-10T03:47:32;100016.84;;;8.79;nan
22311;BME280;11323;49.610;11.016;2023-02-10T03:52:32;100012.47;;;8.79;nan
22311;BME280;11323;49.610;11.016;2023-02-10T03:57:33;100017.88;;;8.76;nan
22311;BME280;11323;49.610;11.016;2023-02-10T04:02:33;100017.88;;;8.76;nan
22311;BME280;11323;49.610;11.016;2023-02-10T04:07:33;100032.72;;;8.74;nan
22311;BME280;11323;49.610;11.016;2023-02-10T04:12:34;100036.56;;;8.67;nan
22311;BME280;11323;49.610;11.016;2023-02-10T04:17:34;100052.91;;;8.69;nan
22311;BME280;11323;49.610;11.016;2023-02-10T04:22:34;100050.25;;;8.71;nan
22311;BME280;11323;49.610;11.016;2023-02-10T04:27:35;100038.25;;;8.68;nan
22311;BME280;11323;49.610;11.016;2023-02-10T04:32:35;100049.56;;;8.67;nan
22311;BME280;11323;49.610;11.016;2023-02-10T04:37:36;100047.22;;;8.62;nan
22311;BME280;11323;49.610;11.016;2023-02-10T04:42:36;100059.28;;;8.63;nan
22311;BME280;11323;49.610;11.016;2023-02-10T04:47:37;100078.50;;;8.61;nan
22311;BME280;11323;49.610;11.016;2023-02-10T04:52:37;100076.81;;;8.60;nan
22311;BME280;11323;49.610;11.016;2023-02-10T04:57:37;100072.13;;;8.50;nan
22311;BME280;11323;49.610;11.016;2023-02-10T05:02:38;100066.00;;;8.52;nan
22311;BME280;11323;49.610;11.016;2023-02-10T05:07:38;100078.75;;;8.56;nan
22311;BME280;11323;49.610;11.016;2023-02-10T05:12:39;100072.91;;;8.53;nan
22311;BME280;11323;49.610;11.016;2023-02-10T05:17:40;100082.53;;;8.50;nan
22311;BME280;11323;49.610;11.016;2023-02-10T05:22:41;100081.75;;;8.48;nan
22311;BME280;11323;49.610;11.016;2023-02-10T05:27:41;100074.19;;;8.44;nan
22311;BME280;11323;49.610;11.016;2023-02-10T05:32:42;100088.75;;;8.46;nan
22311;BME280;11323;49.610;11.016;2023-02-10T05:37:42;100085.44;;;8.44;nan
22311;BME280;11323;49.610;11.016;2023-02-10T05:42:42;100089.25;;;8.37;nan
22311;BME280;11323;49.610;11.016;2023-02-10T05:47:43;100098.66;;;8.40;nan
22311;BME280;11323;49.610;11.016;2023-02-10T05:52:43;100104.53;;;8.43;nan
22311;BME280;11323;49.610;11.016;2023-02-10T05:57:43;100098.31;;;8.30;nan
22311;BME280;11323;49.610;11.016;2023-02-10T06:02:44;100111.88;;;8.35;nan
22311;BME280;11323;49.610;11.016;2023-02-10T06:07:44;100111.22;;;8.31;nan
22311;BME280;11323;49.610;11.016;2023-02-10T06:12:45;100124.16;;;8.33;nan
22311;BME280;11323;49.610;11.016;2023-02-10T06:17:45;100127.72;;;8.30;nan
22311;BME280;11323;49.610;11.016;2023-02-10T06:22:45;100132.84;;;8.32;nan
22311;BME280;11323;49.610;11.016;2023-02-10T06:27:46;100149.34;;;8.31;nan
22311;BME280;11323;49.610;11.016;2023-02-10T06:32:46;100160.06;;;8.25;nan
22311;BME280;11323;49.610;11.016;2023-02-10T06:37:46;100163.56;;;8.24;nan
22311;BME280;11323;49.610;11.016;2023-02-10T06:42:47;100176.56;;;8.24;nan
22311;BME280;11323;49.610;11.016;2023-02-10T06:47:48;100176.41;;;8.27;nan
22311;BME280;11323;49.610;11.016;2023-02-10T06:52:48;100176.41;;;8.27;nan
22311;BME280;11323;49.610;11.016;2023-02-10T06:57:48;100185.88;;;8.28;nan
22311;BME280;11323;49.610;11.016;2023-02-10T07:02:49;100175.63;;;8.25;nan
22311;BME280;11323;49.610;11.016;2023-02-10T07:07:50;100169.84;;;8.19;nan
22311;BME280;11323;49.610;11.016;2023-02-10T07:12:51;100164.47;;;8.23;nan
22311;BME280;11323;49.610;11.016;2023-02-10T07:17:51;100177.03;;;8.32;nan
22311;BME280;11323;49.610;11.016;2023-02-10T07:22:52;100179.28;;;8.38;nan
22311;BME280;11323;49.610;11.016;2023-02-10T07:27:52;100180.81;;;8.42;nan
22311;BME280;11323;49.610;11.016;2023-02-10T07:32:52;100180.97;;;8.39;nan
22311;BME280;11323;49.610;11.016;2023-02-10T07:37:53;100183.88;;;8.50;nan
22311;BME280;11323;49.610;11.016;2023-02-10T07:42:53;100177.19;;;8.78;nan
22311;BME280;11323;49.610;11.016;2023-02-10T07:48:05;100166.63;;;9.14;nan
22311;BME280;11323;49.610;11.016;2023-02-10T07:53:05;100169.28;;;9.44;nan
22311;BME280;11323;49.610;11.016;2023-02-10T07:58:06;100179.28;;;9.82;nan
22311;BME280;11323;49.610;11.016;2023-02-10T08:03:11;100190.03;;;10.07;nan
22311;BME280;11323;49.610;11.016;2023-02-10T08:08:12;100189.31;;;10.33;nan
22311;BME280;11323;49.610;11.016;2023-02-10T08:13:12;100177.53;;;10.57;nan
22311;BME280;11323;49.610;11.016;2023-02-10T08:18:12;100191.03;;;10.78;nan
22311;BME280;11323;49.610;11.016;2023-02-10T08:23:15;100208.13;;;10.96;nan
22311;BME280;11323;49.610;11.016;2023-02-10T08:28:15;100210.53;;;9.36;nan
22311;BME280;11323;49.610;11.016;2023-02-10T08:33:16;100205.34;;;5.26;nan
22311;BME280;11323;49.610;11.016;2023-02-10T08:38:16;100205.09;;;7.36;nan
22311;BME280;11323;49.610;11.016;2023-02-10T08:43:17;100195.25;;;9.76;nan
22311;BME280;11323;49.610;11.016;2023-02-10T08:48:17;100212.28;;;10.57;nan
22311;BME280;11323;49.610;11.016;2023-02-10T08:53:19;100216.88;;;10.95;nan
22311;BME280;11323;49.610;11.016;2023-02-10T08:58:19;100206.00;;;11.31;nan
22311;BME280;11323;49.610;11.016;2023-02-10T09:03:20;100226.28;;;11.67;nan
22311;BME280;11323;49.610;11.016;2023-02-10T09:08:21;100234.19;;;11.80;nan
22311;BME280;11323;49.610;11.016;2023-02-10T09:13:22;100232.06;;;11.85;nan
22311;BME280;11323;49.610;11.016;2023-02-10T09:18:22;100236.53;;;11.98;nan
22311;BME280;11323;49.610;11.016;2023-02-10T09:23:22;100245.97;;;12.13;nan
22311;BME280;11323;49.610;11.016;2023-02-10T09:28:23;100239.38;;;12.20;nan
22311;BME280;11323;49.610;11.016;2023-02-10T09:33:24;100236.69;;;11.95;nan
22311;BME280;11323;49.610;11.016;2023-02-10T09:38:24;100261.56;;;11.87;nan
22311;BME280;11323;49.610;11.016;2023-02-10T09:48:56;100243.94;;;11.64;nan
22311;BME280;11323;49.610;11.016;2023-02-10T09:54:01;100239.13;;;11.57;nan
22311;BME280;11323;49.610;11.016;2023-02-10T09:59:01;100251.44;;;11.55;nan
22311;BME280;11323;49.610;11.016;2023-02-10T10:04:18;100256.16;;;11.36;nan
22311;BME280;11323;49.610;11.016;2023-02-10T10:09:40;100246.50;;;11.23;nan
22311;BME280;11323;49.610;11.016;2023-02-10T10:14:42;100254.94;;;11.41;nan
22311;BME280;11323;49.610;11.016;2023-02-10T10:30:59;100254.63;;;11.46;nan
22311;BME280;11323;49.610;11.016;2023-02-10T10:36:01;100254.06;;;11.41;nan
22311;BME280;11323;49.610;11.016;2023-02-10T10:41:05;100253.53;;;11.36;nan
22311;BME280;11323;49.610;11.016;2023-02-10T10:46:16;100243.94;;;11.22;nan
22311;BME280;11323;49.610;11.016;2023-02-10T10:51:19;100247.06;;;11.14;nan
22311;BME280;11323;49.610;11.016;2023-02-10T10:56:37;100246.41;;;11.10;nan
22311;BME280;11323;49.610;11.016;2023-02-10T11:01:41;100242.91;;;10.97;nan
22311;BME280;11323;49.610;11.016;2023-02-10T11:06:45;100236.66;;;11.00;nan
22311;BME280;11323;49.610;11.016;2023-02-10T11:11:47;100217.03;;;11.21;nan
22311;BME280;11323;49.610;11.016;2023-02-10T11:16:50;100221.13;;;11.53;nan
22311;BME280;11323;49.610;11.016;2023-02-10T11:21:52;100231.31;;;11.70;nan
22311;BME280;11323;49.610;11.016;2023-02-10T11:27:04;100232.28;;;11.82;nan
22311;BME280;11323;49.610;11.016;2023-02-10T11:32:05;100226.47;;;11.92;nan
22311;BME280;11323;49.610;11.016;2023-02-10T11:37:11;100230.22;;;11.87;nan
22311;BME280;11323;49.610;11.016;2023-02-10T11:42:21;100234.25;;;11.79;nan
22311;BME280;11323;49.610;11.016;2023-02-10T11:47:25;100222.84;;;11.67;nan
22311;BME280;11323;49.610;11.016;2023-02-10T11:52:28;100211.22;;;11.58;nan
22311;BME280;11323;49.610;11.016;2023-02-10T11:57:39;100234.09;;;11.54;nan
22311;BME280;11323;49.610;11.016;2023-02-10T12:03:19;100227.34;;;11.37;nan
22311;BME280;11323;49.610;11.016;2023-02-10T12:14:22;100216.69;;;11.40;nan
22311;BME280;11323;49.610;11.016;2023-02-10T12:19:55;100219.19;;;11.42;nan
22311;BME280;11323;49.610;11.016;2023-02-10T12:24:57;100205.09;;;11.44;nan
22311;BME280;11323;49.610;11.016;2023-02-10T12:30:18;100187.28;;;11.51;nan
22311;BME280;11323;49.610;11.016;2023-02-10T12:35:35;100194.50;;;11.61;nan
22311;BME280;11323;49.610;11.016;2023-02-10T12:52:12;100196.66;;;11.81;nan
22311;BME280;11323;49.610;11.016;2023-02-10T12:57:27;100199.47;;;11.78;nan
22311;BME280;11323;49.610;11.016;2023-02-10T13:02:41;100185.66;;;11.76;nan
22311;BME280;11323;49.610;11.016;2023-02-10T13:07:49;100180.25;;;11.92;nan
22311;BME280;11323;49.610;11.016;2023-02-10T13:12:52;100174.22;;;11.92;nan
22311;BME280;11323;49.610;11.016;2023-02-10T13:17:55;100186.13;;;11.96;nan
22311;BME280;11323;49.610;11.016;2023-02-10T13:23:23;100182.03;;;11.92;nan
22311;BME280;11323;49.610;11.016;2023-02-10T13:33:39;100183.78;;;11.78;nan
22311;BME280;11323;49.610;11.016;2023-02-10T13:38:46;100172.28;;;11.68;nan
22311;BME280;11323;49.610;11.016;2023-02-10T13:43:54;100166.13;;;11.69;nan
22311;BME280;11323;49.610;11.016;2023-02-10T13:48:58;100162.44;;;11.58;nan
22311;BME280;11323;49.610;11.016;2023-02-10T13:54:00;100164.50;;;11.53;nan
22311;BME280;11323;49.610;11.016;2023-02-10T13:59:04;100162.22;;;11.62;nan
22311;BME280;11323;49.610;11.016;2023-02-10T14:14:34;100158.53;;;11.92;nan
22311;BME280;11323;49.610;11.016;2023-02-10T14:19:37;100154.19;;;12.18;nan
22311;BME280;11323;49.610;11.016;2023-02-10T14:24:43;100148.53;;;12.11;nan
22311;BME280;11323;49.610;11.016;2023-02-10T14:29:50;100132.22;;;12.08;nan
22311;BME280;11323;49.610;11.016;2023-02-10T14:34:57;100142.25;;;12.01;nan
22311;BME280;11323;49.610;11.016;2023-02-10T14:40:01;100143.94;;;12.02;nan
22311;BME280;11323;49.610;11.016;2023-02-10T14:45:02;100139.84;;;12.11;nan
22311;BME280;11323;49.610;11.016;2023-02-10T14:50:05;100135.78;;;12.07;nan
22311;BME280;11323;49.610;11.016;2023-02-10T14:55:28;100146.22;;;12.07;nan
22311;BME280;11323;49.610;11.016;2023-02-10T15:00:31;100148.72;;;12.08;nan
22311;BME280;11323;49.610;11.016;2023-02-10T15:05:36;100118.84;;;12.12;nan
22311;BME280;11323;49.610;11.016;2023-02-10T15:10:43;100133.34;;;12.42;nan
22311;BME280;11323;49.610;11.016;2023-02-10T15:15:48;100128.28;;;12.65;nan
22311;BME280;11323;49.610;11.016;2023-02-10T15:20:56;100119.03;;;12.72;nan
22311;BME280;11323;49.610;11.016;2023-02-10T15:36:32;100117.75;;;12.41;nan
22311;BME280;11323;49.610;11.016;2023-02-10T15:41:37;100121.22;;;12.28;nan
22311;BME280;11323;49.610;11.016;2023-02-10T15:46:38;100115.88;;;12.30;nan
22311;BME280;11323;49.610;11.016;2023-02-10T15:51:48;100124.66;;;12.29;nan
22311;BME280;11323;49.610;11.016;2023-02-10T15:57:04;100108.91;;;12.30;nan
22311;BME280;11323;49.610;11.016;2023-02-10T16:02:06;100119.66;;;12.26;nan
22311;BME280;11323;49.610;11.016;2023-02-10T16:07:14;100123.44;;;12.22;nan
22311;BME280;11323;49.610;11.016;2023-02-10T16:12:18;100125.63;;;12.15;nan
22311;BME280;11323;49.610;11.016;2023-02-10T16:17:22;100127.81;;;12.08;nan
22311;BME280;11323;49.610;11.016;2023-02-10T16:22:24;100124.69;;;12.03;nan
22311;BME280;11323;49.610;11.016;2023-02-10T16:27:24;100133.47;;;12.02;nan
22311;BME280;11323;49.610;11.016;2023-02-10T16:32:24;100124.75;;;11.88;nan
22311;BME280;11323;49.610;11.016;2023-02-10T16:37:25;100145.13;;;11.83;nan
22311;BME280;11323;49.610;11.016;2023-02-10T16:42:25;100134.66;;;11.70;nan
22311;BME280;11323;49.610;11.016;2023-02-10T16:47:25;100135.16;;;11.63;nan
22311;BME280;11323;49.610;11.016;2023-02-10T16:52:26;100138.72;;;11.62;nan
22311;BME280;11323;49.610;11.016;2023-02-10T16:57:26;100135.91;;;11.65;nan
22311;BME280;11323;49.610;11.016;2023-02-10T17:02:27;100140.31;;;11.77;nan
22311;BME280;11323;49.610;11.016;2023-02-10T17:07:28;100139.91;;;11.83;nan
22311;BME280;11323;49.610;11.016;2023-02-10T17:12:28;100141.56;;;11.84;nan
22311;BME280;11323;49.610;11.016;2023-02-10T17:17:29;100152.56;;;11.89;nan
22311;BME280;11323;49.610;11.016;2023-02-10T17:22:29;100135.72;;;11.94;nan
22311;BME280;11323;49.610;11.016;2023-02-10T17:27:29;100145.38;;;12.06;nan
22311;BME280;11323;49.610;11.016;2023-02-10T17:32:31;100146.84;;;12.10;nan
22311;BME280;11323;49.610;11.016;2023-02-10T17:37:32;100150.53;;;12.08;nan
22311;BME280;11323;49.610;11.016;2023-02-10T17:42:32;100152.59;;;12.02;nan
22311;BME280;11323;49.610;11.016;2023-02-10T17:47:33;100158.56;;;12.04;nan
22311;BME280;11323;49.610;11.016;2023-02-10T17:52:33;100143.41;;;12.10;nan
22311;BME280;11323;49.610;11.016;2023-02-10T17:57:34;100156.28;;;12.26;nan
22311;BME280;11323;49.610;11.016;2023-02-10T18:02:34;100155.63;;;12.35;nan
22311;BME280;11323;49.610;11.016;2023-02-10T18:07:35;100160.84;;;12.48;nan
22311;BME280;11323;49.610;11.016;2023-02-10T18:12:35;100163.44;;;12.48;nan
22311;BME280;11323;49.610;11.016;2023-02-10T18:17:36;100170.03;;;12.54;nan
22311;BME280;11323;49.610;11.016;2023-02-10T18:22:36;100175.72;;;12.47;nan
22311;BME280;11323;49.610;11.016;2023-02-10T18:27:37;100167.16;;;12.32;nan
22311;BME280;11323;49.610;11.016;2023-02-10T18:32:37;100182.72;;;12.34;nan
22311;BME280;11323;49.610;11.016;2023-02-10T18:37:41;100159.09;;;12.23;nan
22311;BME280;11323;49.610;11.016;2023-02-10T18:42:41;100173.00;;;12.36;nan
22311;BME280;11323;49.610;11.016;2023-02-10T18:47:42;100150.41;;;12.35;nan
22311;BME280;11323;49.610;11.016;2023-02-10T18:52:42;100168.59;;;12.36;nan
22311;BME280;11323;49.610;11.016;2023-02-10T18:57:42;100170.56;;;12.46;nan
22311;BME280;11323;49.610;11.016;2023-02-10T19:02:43;100167.66;;;12.38;nan
22311;BME280;11323;49.610;11.016;2023-02-10T19:07:43;100154.81;;;12.22;nan
22311;BME280;11323;49.610;11.016;2023-02-10T19:12:44;100156.69;;;12.19;nan
22311;BME280;11323;49.610;11.016;2023-02-10T19:17:44;100145.19;;;12.09;nan
22311;BME280;11323;49.610;11.016;2023-02-10T19:22:44;100163.78;;;12.17;nan
22311;BME280;11323;49.610;11.016;2023-02-10T19:27:45;100163.38;;;12.24;nan
22311;BME280;11323;49.610;11.016;2023-02-10T19:32:46;100155.44;;;12.12;nan
22311;BME280;11323;49.610;11.016;2023-02-10T19:37:46;100173.91;;;12.22;nan
22311;BME280;11323;49.610;11.016;2023-02-10T19:42:46;100170.69;;;12.18;nan
22311;BME280;11323;49.610;11.016;2023-02-10T19:47:47;100175.59;;;12.23;nan
22311;BME280;11323;49.610;11.016;2023-02-10T19:52:47;100171.22;;;12.24;nan
22311;BME280;11323;49.610;11.016;2023-02-10T19:57:48;100160.97;;;12.20;nan
22311;BME280;11323;49.610;11.016;2023-02-10T20:02:48;100160.97;;;12.20;nan
22311;BME280;11323;49.610;11.016;2023-02-10T20:07:48;100147.91;;;12.20;nan
22311;BME280;11323;49.610;11.016;2023-02-10T20:12:49;100131.59;;;12.17;nan
22311;BME280;11323;49.610;11.016;2023-02-10T20:17:49;100128.34;;;12.13;nan
22311;BME280;11323;49.610;11.016;2023-02-10T20:22:49;100122.19;;;12.14;nan
22311;BME280;11323;49.610;11.016;2023-02-10T20:27:50;100123.88;;;12.15;nan
22311;BME280;11323;49.610;11.016;2023-02-10T20:32:50;100137.03;;;12.14;nan
22311;BME280;11323;49.610;11.016;2023-02-10T20:37:50;100138.06;;;12.11;nan
22311;BME280;11323;49.610;11.016;2023-02-10T20:42:51;100136.59;;;12.07;nan
22311;BME280;11323;49.610;11.016;2023-02-10T20:47:52;100117.34;;;11.95;nan
22311;BME280;11323;49.610;11.016;2023-02-10T20:52:52;100120.69;;;11.97;nan
22311;BME280;11323;49.610;11.016;2023-02-10T20:57:52;100117.19;;;11.98;nan
22311;BME280;11323;49.610;11.016;2023-02-10T21:02:57;100118.75;;;12.01;nan
22311;BME280;11323;49.610;11.016;2023-02-10T21:07:57;100110.25;;;11.97;nan
22311;BME280;11323;49.610;11.016;2023-02-10T21:12:58;100116.31;;;11.98;nan
22311;BME280;11323;49.610;11.016;2023-02-10T21:17:59;100111.50;;;11.92;nan
22311;BME280;11323;49.610;11.016;2023-02-10T21:22:59;100114.81;;;11.94;nan
22311;BME280;11323;49.610;11.016;2023-02-10T21:28:00;100107.41;;;11.87;nan
22311;BME280;11323;49.610;11.016;2023-02-10T21:33:00;100097.16;;;11.84;nan
22311;BME280;11323;49.610;11.016;2023-02-10T21:38:00;100096.22;;;11.85;nan
22311;BME280;11323;49.610;11.016;2023-02-10T21:43:01;100109.28;;;11.85;nan
22311;BME280;11323;49.610;11.016;2023-02-10T21:48:01;100091.44;;;11.79;nan
22311;BME280;11323;49.610;11.016;2023-02-10T21:53:02;100103.13;;;11.86;nan
22311;BME280;11323;49.610;11.016;2023-02-10T21:58:02;100081.38;;;11.47;nan
22311;BME280;11323;49.610;11.016;2023-02-10T22:03:03;100080.38;;;11.22;nan
22311;BME280;11323;49.610;11.016;2023-02-10T22:08:03;100093.81;;;11.16;nan
22311;BME280;11323;49.610;11.016;2023-02-10T22:13:04;100095.75;;;11.00;nan
22311;BME280;11323;49.610;11.016;2023-02-10T22:18:05;100092.88;;;10.90;nan
22311;BME280;11323;49.610;11.016;2023-02-10T22:23:05;100103.09;;;10.80;nan
22311;BME280;11323;49.610;11.016;2023-02-10T22:28:05;100114.06;;;10.71;nan
22311;BME280;11323;49.610;11.016;2023-02-10T22:33:06;100111.13;;;10.62;nan
22311;BME280;11323;49.610;11.016;2023-02-10T22:38:06;100099.41;;;10.55;nan
22311;BME280;11323;49.610;11.016;2023-02-10T22:43:07;100097.28;;;10.47;nan
22311;BME280;11323;49.610;11.016;2023-02-10T22:48:07;100095.28;;;10.36;nan
22311;BME280;11323;49.610;11.016;2023-02-10T22:53:08;100097.16;;;10.34;nan
22311;BME280;11323;49.610;11.016;2023-02-10T22:58:08;100078.00;;;10.21;nan
22311;BME280;11323;49.610;11.016;2023-02-10T23:03:08;100097.91;;;10.22;nan
22311;BME280;11323;49.610;11.016;2023-02-10T23:08:09;100086.19;;;10.15;nan
22311;BME280;11323;49.610;11.016;2023-02-10T23:13:09;100091.38;;;10.15;nan
22311;BME280;11323;49.610;11.016;2023-02-10T23:18:10;100090.09;;;10.08;nan
22311;BME280;11323;49.610;11.016;2023-02-10T23:23:10;100093.63;;;10.07;nan
22311;BME280;11323;49.610;11.016;2023-02-10T23:28:10;100084.81;;;9.95;nan
22311;BME280;11323;49.610;11.016;2023-02-10T23:33:11;100081.72;;;9.88;nan
22311;BME280;11323;49.610;11.016;2023-02-10T23:38:12;100092.41;;;9.83;nan
22311;BME280;11323;49.610;11.016;2023-02-10T23:43:13;100071.88;;;9.79;nan
22311;BME280;11323;49.610;11.016;2023-02-10T23:48:13;100069.44;;;9.76;nan
22311;BME280;11323;49.610;11.016;2023-02-10T23:53:14;100062.06;;;9.68;nan
22311;BME280;11323;49.610;11.016;2023-02-10T23:58:14;100061.91;;;9.71;nan
